createdAt,value
2023-02-08T00:01:18.244Z,63.61
2023-02-08T00:03:46.685Z,63.65
2023-02-08T00:06:15.097Z,63.77
2023-02-08T00:08:43.338Z,63.71
2023-02-08T00:11:11.974Z,63.71
2023-02-08T00:13:42.081Z,64.13
2023-02-08T00:16:13.884Z,64.18
2023-02-08T00:18:42.402Z,64.44
2023-02-08T00:21:14.892Z,64.59
2023-02-08T00:23:43.121Z,64.89
2023-02-08T00:26:11.649Z,65.19
2023-02-08T00:28:39.901Z,65.24
2023-02-08T00:31:08.560Z,65.49
2023-02-08T00:33:38.198Z,65.35
2023-02-08T00:36:08.903Z,65.42
2023-02-08T00:38:37.682Z,65.90
2023-02-08T00:41:06.314Z,65.91
2023-02-08T00:43:34.670Z,65.64
2023-02-08T00:46:02.794Z,65.84
2023-02-08T00:48:31.823Z,65.69
2023-02-08T00:51:06.717Z,65.53
2023-02-08T00:53:38.308Z,65.50
2023-02-08T00:56:07.363Z,65.46
2023-02-08T00:58:36.286Z,66.07
2023-02-08T01:01:06.167Z,65.83
2023-02-08T01:03:35.787Z,65.88
2023-02-08T01:06:07.999Z,65.77
2023-02-08T01:08:36.256Z,66.34
2023-02-08T01:11:07.042Z,66.25
2023-02-08T01:13:35.370Z,66.36
2023-02-08T01:16:12.755Z,66.55
2023-02-08T01:18:41.456Z,66.90
2023-02-08T01:21:13.308Z,66.22
2023-02-08T01:23:41.769Z,66.64
2023-02-08T01:26:11.374Z,66.71
2023-02-08T01:28:40.224Z,66.53
2023-02-08T01:31:10.086Z,66.38
2023-02-08T01:33:38.712Z,67.15
2023-02-08T01:36:07.830Z,66.16
2023-02-08T01:38:38.242Z,66.57
2023-02-08T01:41:26.613Z,66.26
2023-02-08T01:44:07.298Z,66.34
2023-02-08T01:46:37.060Z,66.65
2023-02-08T01:49:09.412Z,66.05
2023-02-08T01:51:41.843Z,66.29
2023-02-08T01:54:14.209Z,66.83
2023-02-08T01:56:46.263Z,66.39
2023-02-08T01:59:19.213Z,66.29
2023-02-08T02:01:49.910Z,66.13
2023-02-08T02:04:18.196Z,66.57
2023-02-08T02:06:50.027Z,66.26
2023-02-08T02:09:25.888Z,66.34
2023-02-08T02:11:55.713Z,66.28
2023-02-08T02:14:24.701Z,66.26
2023-02-08T02:16:52.771Z,66.22
2023-02-08T02:19:30.534Z,65.99
2023-02-08T02:22:09.080Z,66.50
2023-02-08T02:25:06.603Z,66.18
2023-02-08T02:27:50.067Z,66.20
2023-02-08T02:30:53.373Z,66.11
2023-02-08T02:33:54.854Z,66.70
2023-02-08T02:36:34.638Z,66.79
2023-02-08T02:39:15.049Z,66.54
2023-02-08T02:42:12.570Z,67.00
2023-02-08T02:44:51.948Z,67.51
2023-02-08T02:47:29.944Z,67.22
2023-02-08T02:50:05.678Z,66.91
2023-02-08T02:52:41.941Z,66.98
2023-02-08T02:55:13.448Z,66.85
2023-02-08T02:57:45.065Z,66.95
2023-02-08T03:00:20.702Z,67.21
2023-02-08T03:02:49.075Z,67.11
2023-02-08T03:05:18.901Z,67.50
2023-02-08T03:08:08.603Z,67.67
2023-02-08T03:10:51.389Z,67.29
2023-02-08T03:13:30.972Z,67.69
2023-02-08T03:16:12.704Z,68.05
2023-02-08T03:18:54.167Z,67.82
2023-02-08T03:21:34.018Z,67.93
2023-02-08T03:24:07.130Z,68.51
2023-02-08T03:26:39.713Z,68.87
2023-02-08T03:29:16.097Z,68.74
2023-02-08T03:31:49.181Z,68.86
2023-02-08T03:34:23.947Z,69.12
2023-02-08T03:36:57.257Z,69.18
2023-02-08T03:39:29.471Z,69.62
2023-02-08T03:42:01.418Z,69.22
2023-02-08T03:44:35.353Z,69.69
2023-02-08T03:47:09.386Z,70.05
2023-02-08T03:49:39.191Z,69.22
2023-02-08T03:52:11.574Z,69.53
2023-02-08T03:54:45.127Z,69.64
2023-02-08T03:57:19.189Z,69.56
2023-02-08T03:59:53.168Z,69.35
2023-02-08T04:02:25.022Z,68.67
2023-02-08T04:04:54.686Z,68.37
2023-02-08T04:07:24.205Z,68.20
2023-02-08T04:09:52.248Z,67.77
2023-02-08T04:12:20.493Z,67.65
2023-02-08T04:14:48.750Z,68.12
2023-02-08T04:17:16.864Z,68.27
2023-02-08T04:19:44.987Z,68.26
2023-02-08T04:22:13.103Z,68.91
2023-02-08T04:24:42.643Z,68.95
2023-02-08T04:27:10.777Z,68.64
2023-02-08T04:29:38.932Z,68.32
2023-02-08T04:32:11.624Z,68.69
2023-02-08T04:34:39.969Z,68.59
2023-02-08T04:37:08.741Z,68.03
2023-02-08T04:39:36.890Z,68.08
2023-02-08T04:42:06.640Z,68.11
2023-02-08T04:44:34.913Z,68.29
2023-02-08T04:47:03.177Z,68.09
2023-02-08T04:49:31.377Z,67.25
2023-02-08T04:51:59.645Z,68.00
2023-02-08T04:54:27.848Z,68.35
2023-02-08T04:56:55.974Z,68.59
2023-02-08T04:59:25.634Z,68.75
2023-02-08T05:01:53.724Z,68.94
2023-02-08T05:04:22.037Z,68.49
2023-02-08T05:06:50.099Z,68.43
2023-02-08T05:09:18.161Z,68.31
2023-02-08T05:11:47.067Z,67.95
2023-02-08T05:14:15.204Z,67.58
2023-02-08T05:16:44.782Z,66.80
2023-02-08T05:19:13.565Z,66.86
2023-02-08T05:21:41.723Z,66.78
2023-02-08T05:24:12.953Z,67.31
2023-02-08T05:26:41.693Z,66.95
2023-02-08T05:29:12.009Z,67.14
2023-02-08T05:31:40.751Z,66.20
2023-02-08T05:34:10.410Z,66.26
2023-02-08T05:36:39.001Z,66.98
2023-02-08T05:39:07.941Z,66.66
2023-02-08T05:41:36.092Z,66.85
2023-02-08T05:44:04.289Z,66.52
2023-02-08T05:46:32.705Z,66.59
2023-02-08T05:49:00.800Z,66.43
2023-02-08T05:51:30.363Z,65.97
2023-02-08T05:53:58.401Z,65.74
2023-02-08T05:56:27.686Z,65.63
2023-02-08T05:58:56.402Z,65.33
2023-02-08T06:01:24.732Z,65.23
2023-02-08T06:03:53.181Z,65.44
2023-02-08T06:06:21.588Z,65.43
2023-02-08T06:08:51.057Z,64.48
2023-02-08T06:11:20.188Z,64.43
2023-02-08T06:13:48.826Z,64.12
2023-02-08T06:16:19.877Z,63.84
2023-02-08T06:18:48.648Z,63.99
2023-02-08T06:21:16.955Z,63.66
2023-02-08T06:23:45.329Z,63.06
2023-02-08T06:26:14.926Z,62.62
2023-02-08T06:28:43.074Z,62.77
2023-02-08T06:31:11.168Z,62.72
2023-02-08T06:33:39.661Z,62.31
2023-02-08T06:36:08.782Z,62.55
2023-02-08T06:38:36.836Z,62.11
2023-02-08T06:41:05.045Z,62.10
2023-02-08T06:43:34.683Z,62.06
2023-02-08T06:46:04.933Z,61.71
2023-02-08T06:48:33.187Z,61.93
2023-02-08T06:51:01.730Z,61.86
2023-02-08T06:53:30.172Z,61.42
2023-02-08T06:55:58.379Z,61.77
2023-02-08T06:58:26.593Z,61.07
2023-02-08T07:00:56.371Z,61.88
2023-02-08T07:03:24.587Z,61.44
2023-02-08T07:06:04.551Z,61.07
2023-02-08T07:08:34.166Z,60.29
2023-02-08T07:11:06.948Z,60.09
2023-02-08T07:13:35.234Z,60.17
2023-02-08T07:16:05.294Z,59.96
2023-02-08T07:18:34.083Z,59.83
2023-02-08T07:21:02.357Z,60.40
2023-02-08T07:23:31.435Z,59.80
2023-02-08T07:26:00.340Z,60.33
2023-02-08T07:28:29.054Z,59.85
2023-02-08T07:30:57.360Z,59.82
2023-02-08T07:33:27.573Z,59.84
2023-02-08T07:35:55.801Z,59.89
2023-02-08T07:38:24.027Z,59.81
2023-02-08T07:40:52.455Z,59.51
2023-02-08T07:43:20.683Z,59.43
2023-02-08T07:45:49.299Z,59.52
2023-02-08T07:48:17.545Z,58.99
2023-02-08T07:50:47.691Z,59.60
2023-02-08T07:53:16.088Z,59.30
2023-02-08T07:55:46.851Z,58.92
2023-02-08T07:58:15.541Z,59.01
2023-02-08T08:00:43.836Z,58.78
2023-02-08T08:03:12.341Z,57.75
2023-02-08T08:05:42.175Z,57.46
2023-02-08T08:08:13.229Z,58.11
2023-02-08T08:10:41.752Z,57.50
2023-02-08T08:13:10.371Z,57.84
2023-02-08T08:15:38.603Z,57.04
2023-02-08T08:18:06.887Z,56.92
2023-02-08T08:20:35.349Z,56.47
2023-02-08T08:23:03.774Z,55.69
2023-02-08T08:25:33.414Z,56.03
2023-02-08T08:28:03.100Z,56.72
2023-02-08T08:30:31.316Z,55.91
2023-02-08T08:32:59.663Z,55.55
2023-02-08T08:35:27.826Z,56.13
2023-02-08T08:37:56.130Z,55.58
2023-02-08T08:40:25.236Z,55.32
2023-02-08T08:42:54.937Z,55.65
2023-02-08T08:45:23.200Z,54.89
2023-02-08T08:47:51.489Z,56.10
2023-02-08T08:50:20.072Z,56.02
2023-02-08T08:52:48.400Z,55.52
2023-02-08T08:55:16.679Z,55.72
2023-02-08T08:57:44.864Z,55.78
2023-02-08T09:00:15.910Z,54.90
2023-02-08T09:02:44.171Z,55.62
2023-02-08T09:05:12.358Z,55.68
2023-02-08T09:07:40.689Z,54.63
2023-02-08T09:10:09.195Z,53.40
2023-02-08T09:12:37.568Z,52.27
2023-02-08T09:15:06.656Z,52.93
2023-02-08T09:17:36.335Z,52.22
2023-02-08T09:20:04.975Z,52.74
2023-02-08T09:22:33.389Z,52.67
2023-02-08T09:25:02.219Z,51.33
2023-02-08T09:27:30.535Z,51.27
2023-02-08T09:30:01.988Z,51.25
2023-02-08T09:32:34.122Z,51.65
2023-02-08T09:35:04.080Z,51.50
2023-02-08T09:37:32.265Z,54.75
2023-02-08T09:40:01.813Z,49.60
2023-02-08T09:42:36.074Z,50.31
2023-02-08T09:45:27.814Z,50.12
2023-02-08T09:48:02.027Z,50.59
2023-02-08T09:50:35.414Z,50.58
2023-02-08T09:53:10.909Z,51.73
2023-02-08T09:55:42.783Z,49.78
2023-02-08T09:58:21.134Z,53.06
2023-02-08T10:00:53.503Z,50.62
2023-02-08T10:03:45.100Z,50.61
2023-02-08T10:06:17.140Z,47.08
2023-02-08T10:08:47.229Z,47.88
2023-02-08T10:11:43.467Z,47.91
2023-02-08T10:14:38.522Z,47.44
2023-02-08T10:17:20.481Z,46.60
2023-02-08T10:20:03.743Z,46.44
2023-02-08T10:22:46.735Z,46.64
2023-02-08T10:25:38.898Z,47.28
2023-02-08T10:28:30.805Z,47.50
2023-02-08T10:31:10.460Z,49.50
2023-02-08T10:33:49.408Z,47.83
2023-02-08T10:36:25.926Z,47.64
2023-02-08T10:39:00.107Z,49.65
2023-02-08T10:41:40.143Z,47.63
2023-02-08T10:44:27.584Z,46.36
2023-02-08T10:47:14.837Z,47.96
2023-02-08T10:49:53.339Z,44.71
2023-02-08T10:52:24.678Z,43.72
2023-02-08T10:54:54.840Z,43.55
2023-02-08T10:57:27.332Z,43.39
2023-02-08T11:00:04.678Z,44.15
2023-02-08T11:02:47.945Z,43.18
2023-02-08T11:05:19.206Z,43.59
2023-02-08T11:07:51.720Z,43.65
2023-02-08T11:10:29.406Z,47.47
2023-02-08T11:13:02.921Z,46.68
2023-02-08T11:15:43.136Z,47.35
2023-02-08T11:18:26.899Z,44.93
2023-02-08T11:20:58.505Z,43.61
2023-02-08T11:23:30.050Z,44.29
2023-02-08T11:26:17.740Z,43.16
2023-02-08T11:28:48.677Z,45.41
2023-02-08T11:31:29.735Z,42.65
2023-02-08T11:34:05.144Z,42.75
2023-02-08T11:36:51.022Z,42.24
2023-02-08T11:39:25.126Z,43.07
2023-02-08T11:41:59.157Z,42.50
2023-02-08T11:44:33.004Z,45.68
2023-02-08T11:47:04.545Z,44.17
2023-02-08T11:49:38.634Z,44.74
2023-02-08T11:52:09.257Z,44.01
2023-02-08T11:54:41.494Z,41.95
2023-02-08T11:57:17.631Z,41.76
2023-02-08T11:59:46.910Z,42.16
2023-02-08T12:02:36.142Z,41.45
2023-02-08T12:05:06.119Z,39.86
2023-02-08T12:07:46.496Z,39.82
2023-02-08T12:10:57.119Z,40.46
2023-02-08T12:13:48.158Z,39.68
2023-02-08T12:16:45.434Z,39.77
2023-02-08T12:19:38.565Z,39.93
2023-02-08T12:22:12.322Z,40.33
2023-02-08T12:24:50.903Z,40.48
2023-02-08T12:27:41.252Z,40.69
2023-02-08T12:30:22.709Z,40.72
2023-02-08T12:33:17.245Z,40.50
2023-02-08T12:36:18.164Z,40.66
2023-02-08T12:39:26.445Z,41.74
2023-02-08T12:42:20.859Z,41.89
2023-02-08T12:45:06.769Z,41.11
2023-02-08T12:48:03.646Z,41.79
2023-02-08T12:50:42.936Z,41.47
2023-02-08T12:53:19.368Z,41.19
2023-02-08T12:55:50.121Z,42.09
2023-02-08T12:58:29.576Z,40.59
2023-02-08T13:01:01.698Z,40.93
2023-02-08T13:03:40.580Z,41.16
2023-02-08T13:06:15.030Z,41.45
2023-02-08T13:08:49.157Z,41.44
2023-02-08T13:11:26.805Z,40.76
2023-02-08T13:14:02.137Z,40.17
2023-02-08T13:16:35.598Z,40.08
2023-02-08T13:19:25.676Z,40.28
2023-02-08T13:21:56.304Z,40.12
2023-02-08T13:24:30.762Z,39.88
2023-02-08T13:26:58.843Z,39.81
2023-02-08T13:29:29.681Z,40.32
2023-02-08T13:32:03.394Z,40.28
2023-02-08T13:34:37.357Z,39.95
2023-02-08T13:37:25.102Z,40.22
2023-02-08T13:40:04.057Z,40.88
2023-02-08T13:42:37.984Z,40.87
2023-02-08T13:45:10.347Z,40.97
2023-02-08T13:47:45.269Z,40.63
2023-02-08T13:50:46.166Z,39.87
2023-02-08T13:53:17.509Z,40.07
2023-02-08T13:56:01.986Z,39.80
2023-02-08T13:58:38.526Z,40.15
2023-02-08T14:01:20.125Z,38.71
2023-02-08T14:04:28.312Z,38.61
2023-02-08T14:07:06.324Z,39.29
2023-02-08T14:09:48.256Z,39.00
2023-02-08T14:12:25.131Z,38.99
2023-02-08T14:15:26.054Z,38.78
2023-02-08T14:17:58.444Z,39.05
2023-02-08T14:20:32.179Z,39.18
2023-02-08T14:23:04.225Z,38.13
2023-02-08T14:25:42.026Z,38.84
2023-02-08T14:28:30.857Z,39.73
2023-02-08T14:31:02.189Z,38.92
2023-02-08T14:33:34.785Z,39.45
2023-02-08T14:36:06.160Z,39.37
2023-02-08T14:39:06.561Z,38.47
2023-02-08T14:41:50.459Z,38.57
2023-02-08T14:44:55.247Z,38.43
2023-02-08T14:48:08.060Z,38.30
2023-02-08T14:50:44.554Z,38.38
2023-02-08T14:53:27.185Z,39.32
2023-02-08T14:56:02.300Z,39.36
2023-02-08T14:58:34.216Z,39.78
2023-02-08T15:01:07.476Z,40.26
2023-02-08T15:03:37.132Z,39.36
2023-02-08T15:06:30.932Z,40.55
2023-02-08T15:08:59.777Z,41.20
2023-02-08T15:11:32.411Z,41.18
2023-02-08T15:14:04.771Z,41.04
2023-02-08T15:16:37.777Z,42.07
2023-02-08T15:19:08.771Z,41.59
2023-02-08T15:21:39.038Z,42.47
2023-02-08T15:24:16.241Z,42.61
2023-02-08T15:26:51.269Z,43.44
2023-02-08T15:29:24.632Z,42.99
2023-02-08T15:31:56.324Z,41.65
2023-02-08T15:34:27.217Z,44.10
2023-02-08T15:36:57.634Z,45.02
2023-02-08T15:39:34.086Z,45.84
2023-02-08T15:42:03.792Z,46.92
2023-02-08T15:44:34.054Z,47.47
2023-02-08T15:47:05.659Z,48.34
2023-02-08T15:49:37.026Z,48.87
2023-02-08T15:52:07.471Z,49.09
2023-02-08T15:54:36.181Z,48.65
2023-02-08T15:57:09.466Z,49.52
2023-02-08T15:59:41.300Z,50.53
2023-02-08T16:02:24.146Z,49.99
2023-02-08T16:04:52.404Z,50.27
2023-02-08T16:07:27.127Z,49.97
2023-02-08T16:09:56.446Z,50.74
2023-02-08T16:12:28.208Z,51.36
2023-02-08T16:14:57.388Z,51.53
2023-02-08T16:17:44.850Z,51.26
2023-02-08T16:20:24.364Z,52.12
2023-02-08T16:22:57.958Z,51.97
2023-02-08T16:25:35.636Z,51.58
2023-02-08T16:28:07.332Z,52.94
2023-02-08T16:30:35.996Z,52.50
2023-02-08T16:33:09.305Z,52.79
2023-02-08T16:35:41.046Z,53.69
2023-02-08T16:38:11.776Z,53.79
2023-02-08T16:40:49.145Z,53.83
2023-02-08T16:43:23.684Z,54.44
2023-02-08T16:46:23.947Z,54.34
2023-02-08T16:48:55.063Z,53.91
2023-02-08T16:51:27.104Z,53.51
2023-02-08T16:53:58.660Z,53.37
2023-02-08T16:56:27.414Z,53.83
2023-02-08T16:58:59.910Z,53.80
2023-02-08T17:01:32.122Z,54.32
2023-02-08T17:04:00.930Z,53.54
2023-02-08T17:06:32.621Z,54.38
2023-02-08T17:09:02.354Z,54.37
2023-02-08T17:11:30.970Z,54.31
2023-02-08T17:14:00.943Z,54.49
2023-02-08T17:16:31.408Z,55.03
2023-02-08T17:19:00.512Z,54.76
2023-02-08T17:21:29.437Z,54.85
2023-02-08T17:23:58.646Z,54.68
2023-02-08T17:26:29.304Z,53.90
2023-02-08T17:28:59.232Z,53.57
2023-02-08T17:31:29.795Z,53.87
2023-02-08T17:34:04.171Z,54.47
2023-02-08T17:36:32.985Z,54.25
2023-02-08T17:39:01.349Z,55.23
2023-02-08T17:41:29.821Z,55.41
2023-02-08T17:43:58.973Z,55.58
2023-02-08T17:46:31.543Z,55.83
2023-02-08T17:49:01.915Z,56.39
2023-02-08T17:51:30.554Z,56.35
2023-02-08T17:53:58.703Z,55.73
2023-02-08T17:56:29.322Z,55.97
2023-02-08T17:59:00.865Z,55.95
2023-02-08T18:01:30.993Z,55.62
2023-02-08T18:04:01.899Z,56.33
2023-02-08T18:06:30.126Z,56.43
2023-02-08T18:08:58.224Z,56.52
2023-02-08T18:11:26.399Z,56.71
2023-02-08T18:13:55.778Z,56.62
2023-02-08T18:16:26.867Z,57.33
2023-02-08T18:18:59.374Z,56.95
2023-02-08T18:21:30.247Z,57.51
2023-02-08T18:24:03.501Z,57.30
2023-02-08T18:26:34.434Z,57.59
2023-02-08T18:29:03.710Z,57.96
2023-02-08T18:31:32.669Z,58.29
2023-02-08T18:34:02.939Z,58.31
2023-02-08T18:36:31.512Z,58.26
2023-02-08T18:39:00.206Z,57.86
2023-02-08T18:41:30.822Z,58.09
2023-02-08T18:44:00.494Z,58.56
2023-02-08T18:46:30.393Z,57.68
2023-02-08T18:48:59.516Z,58.92
2023-02-08T18:51:31.943Z,59.08
2023-02-08T18:54:00.550Z,59.18
2023-02-08T18:56:29.729Z,59.59
2023-02-08T18:59:00.702Z,59.63
2023-02-08T19:01:31.482Z,59.84
2023-02-08T19:04:04.230Z,60.49
2023-02-08T19:06:38.427Z,60.90
2023-02-08T19:09:08.978Z,61.17
2023-02-08T19:11:38.843Z,60.60
2023-02-08T19:14:09.606Z,61.00
2023-02-08T19:16:39.716Z,60.79
2023-02-08T19:19:08.608Z,60.93
2023-02-08T19:21:40.343Z,61.32
2023-02-08T19:24:08.684Z,61.66
2023-02-08T19:26:40.560Z,61.46
2023-02-08T19:29:13.603Z,62.11
2023-02-08T19:31:42.661Z,62.16
2023-02-08T19:34:12.524Z,62.62
2023-02-08T19:36:44.478Z,62.29
2023-02-08T19:39:14.850Z,63.08
2023-02-08T19:41:43.556Z,63.24
2023-02-08T19:44:15.629Z,62.73
2023-02-08T19:46:48.259Z,62.95
2023-02-08T19:49:16.955Z,62.51
2023-02-08T19:51:47.504Z,62.62
2023-02-08T19:54:18.347Z,62.71
2023-02-08T19:56:47.975Z,62.88
2023-02-08T19:59:20.662Z,63.07
2023-02-08T20:01:52.123Z,62.61
2023-02-08T20:04:20.836Z,62.42
2023-02-08T20:06:53.435Z,62.77
2023-02-08T20:09:22.090Z,62.38
2023-02-08T20:12:00.081Z,62.74
2023-02-08T20:14:31.231Z,62.90
2023-02-08T20:17:00.005Z,62.67
2023-02-08T20:19:28.476Z,62.54
2023-02-08T20:21:58.239Z,62.49
2023-02-08T20:24:26.333Z,62.58
2023-02-08T20:26:54.542Z,62.07
2023-02-08T20:29:26.409Z,61.40
2023-02-08T20:31:55.936Z,61.18
2023-02-08T20:34:24.419Z,62.45
2023-02-08T20:37:06.434Z,62.48
2023-02-08T20:39:37.639Z,61.84
2023-02-08T20:42:06.525Z,62.20
2023-02-08T20:44:35.179Z,62.47
2023-02-08T20:47:03.450Z,62.86
2023-02-08T20:49:32.498Z,63.40
2023-02-08T20:52:01.291Z,63.48
2023-02-08T20:54:30.109Z,63.55
2023-02-08T20:57:00.130Z,63.66
2023-02-08T20:59:28.307Z,64.30
2023-02-08T21:01:56.838Z,65.55
2023-02-08T21:04:26.449Z,66.02
2023-02-08T21:06:54.616Z,66.58
2023-02-08T21:09:23.021Z,66.73
2023-02-08T21:11:52.014Z,66.95
2023-02-08T21:14:23.744Z,67.01
2023-02-08T21:16:53.957Z,66.49
2023-02-08T21:19:22.314Z,66.46
2023-02-08T21:21:54.703Z,65.52
2023-02-08T21:24:24.062Z,65.81
2023-02-08T21:26:52.754Z,66.70
2023-02-08T21:29:22.778Z,67.01
2023-02-08T21:31:53.905Z,66.74
2023-02-08T21:34:23.105Z,66.81
2023-02-08T21:36:51.595Z,66.90
2023-02-08T21:39:19.794Z,67.20
2023-02-08T21:41:48.381Z,67.31
2023-02-08T21:44:16.578Z,67.33
2023-02-08T21:46:46.317Z,67.37
2023-02-08T21:49:31.822Z,67.86
2023-02-08T21:52:17.277Z,67.90
2023-02-08T21:54:46.198Z,68.76
2023-02-08T21:57:19.321Z,68.45
2023-02-08T21:59:49.056Z,68.59
2023-02-08T22:02:22.049Z,68.89
2023-02-08T22:05:08.796Z,68.58
2023-02-08T22:07:45.218Z,69.54
2023-02-08T22:10:17.682Z,69.01
2023-02-08T22:12:47.556Z,69.40
2023-02-08T22:15:18.458Z,70.14
2023-02-08T22:17:48.614Z,70.08
2023-02-08T22:20:16.926Z,70.08
2023-02-08T22:22:45.575Z,70.98
2023-02-08T22:25:14.109Z,71.36
2023-02-08T22:27:42.718Z,71.27
2023-02-08T22:30:12.897Z,70.95
2023-02-08T22:32:41.635Z,71.50
2023-02-08T22:35:12.101Z,71.47
2023-02-08T22:37:40.429Z,71.55
2023-02-08T22:40:09.968Z,71.88
2023-02-08T22:42:42.065Z,71.84
2023-02-08T22:45:11.579Z,71.25
2023-02-08T22:47:40.264Z,72.16
2023-02-08T22:50:10.987Z,72.42
2023-02-08T22:52:39.313Z,72.81
2023-02-08T22:55:08.029Z,73.26
2023-02-08T22:57:37.857Z,72.67
2023-02-08T23:00:11.078Z,73.36
2023-02-08T23:02:39.341Z,73.08
2023-02-08T23:05:08.122Z,73.25
2023-02-08T23:07:38.696Z,73.89
2023-02-08T23:10:07.277Z,73.09
2023-02-08T23:12:35.601Z,72.57
2023-02-08T23:15:04.102Z,72.47
2023-02-08T23:17:32.440Z,72.30
2023-02-08T23:20:00.738Z,73.01
2023-02-08T23:22:28.825Z,72.35
2023-02-08T23:24:58.468Z,72.65
2023-02-08T23:27:26.603Z,72.61
2023-02-08T23:29:54.934Z,73.08
2023-02-08T23:32:23.126Z,72.63
2023-02-08T23:34:51.274Z,72.24
2023-02-08T23:37:19.424Z,73.73
2023-02-08T23:39:47.991Z,73.47
2023-02-08T23:42:26.699Z,73.38
2023-02-08T23:44:55.046Z,73.58
2023-02-08T23:47:23.966Z,72.88
2023-02-08T23:49:52.193Z,73.42
2023-02-08T23:52:20.628Z,72.78
2023-02-08T23:54:49.664Z,73.55
2023-02-08T23:57:19.821Z,73.78
2023-02-08T23:59:48.104Z,73.76
